createdAt,value
2023-04-05T00:00:36.517Z,102460.03
2023-04-05T00:03:10.172Z,102456.38
2023-04-05T00:05:43.047Z,102458.31
2023-04-05T00:08:23.702Z,102459.22
2023-04-05T00:10:56.516Z,102454.53
2023-04-05T00:13:30.595Z,102453.09
2023-04-05T00:16:03.335Z,102449.06
2023-04-05T00:18:38.333Z,102437.47
2023-04-05T00:21:11.355Z,102445.66
2023-04-05T00:23:45.128Z,102438.38
2023-04-05T00:26:18.487Z,102436.78
2023-04-05T00:28:55.699Z,102439.22
2023-04-05T00:31:30.528Z,102431.94
2023-04-05T00:34:05.909Z,102437.69
2023-04-05T00:36:38.581Z,102435.66
2023-04-05T00:39:11.400Z,102438.28
2023-04-05T00:41:46.273Z,102436.25
2023-04-05T00:44:21.717Z,102431.69
2023-04-05T00:46:54.688Z,102424.16
2023-04-05T00:49:27.631Z,102431.34
2023-04-05T00:52:00.716Z,102421.53
2023-04-05T00:54:34.353Z,102426.03
2023-04-05T00:57:07.690Z,102430.00
2023-04-05T00:59:42.051Z,102426.13
2023-04-05T01:02:19.169Z,102425.94
2023-04-05T01:05:01.529Z,102426.25
2023-04-05T01:07:42.216Z,102423.03
2023-04-05T01:10:18.974Z,102415.97
2023-04-05T01:12:52.307Z,102422.66
2023-04-05T01:15:26.322Z,102419.94
2023-04-05T01:18:02.132Z,102413.19
2023-04-05T01:20:40.738Z,102402.88
2023-04-05T01:23:31.138Z,102414.59
2023-04-05T01:26:46.689Z,102404.28
2023-04-05T01:29:46.057Z,102403.13
2023-04-05T01:32:41.011Z,102391.41
2023-04-05T01:35:23.340Z,102398.09
2023-04-05T01:38:02.365Z,102392.31
2023-04-05T01:40:38.607Z,102390.50
2023-04-05T01:43:15.320Z,102393.22
2023-04-05T01:45:49.425Z,102381.72
2023-04-05T01:48:22.223Z,102377.06
2023-04-05T01:50:54.916Z,102379.69
2023-04-05T01:53:27.827Z,102371.03
2023-04-05T01:56:01.164Z,102359.91
2023-04-05T01:58:34.691Z,102358.47
2023-04-05T02:01:09.076Z,102358.00
2023-04-05T02:03:42.100Z,102352.16
2023-04-05T02:06:15.324Z,102357.72
2023-04-05T02:08:47.967Z,102344.81
2023-04-05T02:11:22.966Z,102353.38
2023-04-05T02:13:55.816Z,102349.78
2023-04-05T02:16:33.125Z,102343.22
2023-04-05T02:19:05.991Z,102343.84
2023-04-05T02:21:39.063Z,102341.72
2023-04-05T02:24:11.743Z,102338.97
2023-04-05T02:26:44.422Z,102341.72
2023-04-05T02:29:17.228Z,102342.44
2023-04-05T02:31:51.461Z,102341.94
2023-04-05T02:34:24.234Z,102344.66
2023-04-05T02:36:57.126Z,102339.44
2023-04-05T02:39:30.158Z,102334.91
2023-04-05T02:42:02.884Z,102339.94
2023-04-05T02:44:35.735Z,102341.06
2023-04-05T02:47:09.778Z,102341.66
2023-04-05T02:49:42.985Z,102338.84
2023-04-05T02:52:15.870Z,102337.41
2023-04-05T02:54:51.558Z,102333.00
2023-04-05T02:57:30.106Z,102335.81
2023-04-05T03:00:13.160Z,102333.22
2023-04-05T03:02:47.412Z,102327.06
2023-04-05T03:05:20.946Z,102328.19
2023-04-05T03:07:58.156Z,102325.16
2023-04-05T03:10:36.134Z,102325.44
2023-04-05T03:13:18.983Z,102322.50
2023-04-05T03:15:54.838Z,102314.97
2023-04-05T03:18:30.633Z,102316.56
2023-04-05T03:21:12.383Z,102308.19
2023-04-05T03:23:56.244Z,102319.72
2023-04-05T03:26:34.749Z,102315.06
2023-04-05T03:29:07.793Z,102310.22
2023-04-05T03:31:43.578Z,102309.22
2023-04-05T03:34:18.001Z,102309.63
2023-04-05T03:36:52.565Z,102312.16
2023-04-05T03:39:54.699Z,102306.81
2023-04-05T03:42:27.970Z,102307.22
2023-04-05T03:45:01.576Z,102302.25
2023-04-05T03:47:34.874Z,102311.94
2023-04-05T03:50:12.432Z,102311.03
2023-04-05T03:52:45.217Z,102301.13
2023-04-05T03:55:18.825Z,102299.13
2023-04-05T03:57:53.623Z,102295.09
2023-04-05T04:00:34.167Z,102282.78
2023-04-05T04:03:21.664Z,102276.75
2023-04-05T04:05:59.457Z,102274.75
2023-04-05T04:08:34.055Z,102278.59
2023-04-05T04:11:07.469Z,102278.59
2023-04-05T04:13:43.570Z,102274.75
2023-04-05T04:16:27.383Z,102278.38
2023-04-05T04:19:15.641Z,102278.78
2023-04-05T04:22:10.304Z,102282.00
2023-04-05T04:24:54.742Z,102278.88
2023-04-05T04:27:46.749Z,102272.34
2023-04-05T04:30:35.217Z,102275.34
2023-04-05T04:33:38.056Z,102280.59
2023-04-05T04:36:34.633Z,102267.56
2023-04-05T04:39:48.781Z,102276.34
2023-04-05T04:43:00.263Z,102280.19
2023-04-05T04:45:56.163Z,102279.38
2023-04-05T04:48:46.682Z,102285.22
2023-04-05T04:51:31.472Z,102275.94
2023-04-05T04:54:04.487Z,102283.19
2023-04-05T04:56:38.490Z,102274.22
2023-04-05T04:59:11.228Z,102283.19
2023-04-05T05:01:46.600Z,102284.81
2023-04-05T05:04:19.472Z,102286.81
2023-04-05T05:06:53.157Z,102287.22
2023-04-05T05:09:26.425Z,102287.22
2023-04-05T05:12:04.798Z,102293.28
2023-04-05T05:14:37.545Z,102291.94
2023-04-05T05:17:10.586Z,102297.50
2023-04-05T05:19:43.525Z,102295.88
2023-04-05T05:22:16.261Z,102302.94
2023-04-05T05:24:49.147Z,102302.94
2023-04-05T05:27:23.381Z,102302.41
2023-04-05T05:29:56.740Z,102295.16
2023-04-05T05:32:31.958Z,102299.69
2023-04-05T05:35:05.361Z,102299.19
2023-04-05T05:37:40.003Z,102302.94
2023-04-05T05:40:13.612Z,102303.13
2023-04-05T05:42:47.866Z,102305.03
2023-04-05T05:45:20.808Z,102312.47
2023-04-05T05:47:53.513Z,102311.41
2023-04-05T05:50:26.496Z,102311.91
2023-04-05T05:53:01.029Z,102306.75
2023-04-05T06:01:30.765Z,102307.25
2023-04-05T06:04:03.837Z,102309.91
2023-04-05T06:06:37.901Z,102303.31
2023-04-05T06:09:11.119Z,102298.69
2023-04-05T06:11:55.277Z,102306.84
2023-04-05T06:14:30.064Z,102300.09
2023-04-05T06:17:04.292Z,102300.28
2023-04-05T06:19:38.417Z,102304.69
2023-04-05T06:22:11.206Z,102300.97
2023-04-05T06:24:44.087Z,102297.66
2023-04-05T06:27:17.124Z,102293.81
2023-04-05T06:29:49.888Z,102299.19
2023-04-05T06:32:24.349Z,102295.34
2023-04-05T06:34:57.099Z,102295.56
2023-04-05T06:37:29.938Z,102298.78
2023-04-05T06:40:02.872Z,102291.84
2023-04-05T06:42:35.759Z,102298.31
2023-04-05T06:45:12.324Z,102286.63
2023-04-05T06:47:46.760Z,102293.66
2023-04-05T06:50:22.049Z,102284.00
2023-04-05T06:52:57.528Z,102292.06
2023-04-05T06:55:31.146Z,102297.13
2023-04-05T06:58:03.988Z,102291.47
2023-04-05T07:00:37.416Z,102288.66
2023-04-05T07:03:11.662Z,102289.97
2023-04-05T07:05:52.034Z,102293.69
2023-04-05T07:08:25.030Z,102288.66
2023-04-05T07:10:57.752Z,102289.44
2023-04-05T07:13:31.159Z,102287.25
2023-04-05T07:16:04.648Z,102289.56
2023-04-05T07:18:38.810Z,102280.78
2023-04-05T07:21:12.124Z,102281.16
2023-04-05T07:23:44.951Z,102280.94
2023-04-05T07:26:18.023Z,102278.59
2023-04-05T07:28:50.807Z,102281.84
2023-04-05T07:31:23.674Z,102270.59
2023-04-05T07:33:58.166Z,102270.09
2023-04-05T07:36:31.798Z,102274.56
2023-04-05T07:39:05.328Z,102276.06
2023-04-05T07:41:38.219Z,102274.38
2023-04-05T07:44:11.886Z,102277.19
2023-04-05T07:46:48.973Z,102276.38
2023-04-05T07:49:27.699Z,102272.63
2023-04-05T07:52:00.532Z,102271.50
2023-04-05T07:54:34.253Z,102278.44
2023-04-05T07:57:07.341Z,102274.84
2023-04-05T07:59:40.266Z,102265.69
2023-04-05T08:02:14.864Z,102261.66
2023-04-05T08:04:49.155Z,102271.31
2023-04-05T08:07:22.049Z,102272.47
2023-04-05T08:09:57.615Z,102278.25
2023-04-05T08:12:32.052Z,102273.44
2023-04-05T08:15:05.432Z,102271.31
2023-04-05T08:17:38.454Z,102270.47
2023-04-05T08:20:13.990Z,102266.94
2023-04-05T08:22:46.698Z,102264.16
2023-04-05T08:25:19.492Z,102270.13
2023-04-05T08:27:52.449Z,102263.00
2023-04-05T08:30:25.395Z,102269.00
2023-04-05T08:32:57.991Z,102269.69
2023-04-05T08:35:32.407Z,102268.75
2023-04-05T08:38:05.613Z,102272.56
2023-04-05T08:40:42.587Z,102270.91
2023-04-05T08:43:24.017Z,102266.56
2023-04-05T08:45:59.744Z,102264.63
2023-04-05T08:48:35.033Z,102265.81
2023-04-05T08:51:09.470Z,102265.91
2023-04-05T08:53:44.926Z,102259.41
2023-04-05T08:56:22.362Z,102266.53
2023-04-05T08:59:01.485Z,102258.41
2023-04-05T09:01:37.630Z,102263.81
2023-04-05T09:04:13.172Z,102266.78
2023-04-05T09:06:48.943Z,102258.00
2023-04-05T09:09:23.135Z,102260.53
2023-04-05T09:11:57.124Z,102268.41
2023-04-05T09:14:31.379Z,102265.13
2023-04-05T09:17:04.775Z,102263.94
2023-04-05T09:19:37.836Z,102258.19
2023-04-05T09:22:11.951Z,102255.09
2023-04-05T09:24:47.303Z,102254.41
2023-04-05T09:27:23.487Z,102253.50
2023-04-05T09:30:22.459Z,102254.28
2023-04-05T09:32:56.178Z,102258.28
2023-04-05T09:35:31.321Z,102255.31
2023-04-05T09:38:06.179Z,102247.59
2023-04-05T09:40:45.463Z,102254.81
2023-04-05T09:43:39.448Z,102249.97
2023-04-05T09:46:32.195Z,102246.06
2023-04-05T09:49:07.116Z,102248.75
2023-04-05T09:51:40.438Z,102239.81
2023-04-05T09:54:17.711Z,102244.81
2023-04-05T09:56:57.584Z,102240.72
2023-04-05T09:59:31.421Z,102244.97
2023-04-05T10:02:05.643Z,102241.41
2023-04-05T10:04:42.204Z,102239.97
2023-04-05T10:07:17.788Z,102240.88
2023-04-05T10:09:51.979Z,102237.50
2023-04-05T10:12:27.691Z,102231.94
2023-04-05T10:15:03.692Z,102240.72
2023-04-05T10:17:40.704Z,102232.84
2023-04-05T10:20:16.995Z,102235.88
2023-04-05T10:22:58.640Z,102226.25
2023-04-05T10:25:45.081Z,102231.19
2023-04-05T10:28:26.356Z,102219.66
2023-04-05T10:31:10.551Z,102221.44
2023-04-05T10:33:47.433Z,102214.09
2023-04-05T10:36:27.041Z,102217.91
2023-04-05T10:39:04.521Z,102212.88
2023-04-05T10:41:43.982Z,102214.91
2023-04-05T10:44:25.882Z,102213.03
2023-04-05T10:47:00.516Z,102210.72
2023-04-05T10:49:38.092Z,102219.38
2023-04-05T10:52:11.190Z,102215.94
2023-04-05T10:54:45.464Z,102217.50
2023-04-05T10:57:21.448Z,102215.00
2023-04-05T10:59:55.239Z,102208.31
2023-04-05T11:02:30.216Z,102213.88
2023-04-05T11:05:05.887Z,102203.22
2023-04-05T11:07:44.992Z,102207.63
2023-04-05T11:10:19.378Z,102203.31
2023-04-05T11:13:10.631Z,102209.66
2023-04-05T11:15:43.601Z,102204.97
2023-04-05T11:18:23.334Z,102200.28
2023-04-05T11:21:09.270Z,102199.16
2023-04-05T11:24:04.498Z,102201.28
2023-04-05T11:26:57.496Z,102195.34
2023-04-05T11:29:54.420Z,102189.28
2023-04-05T11:32:40.618Z,102187.00
2023-04-05T11:35:16.002Z,102189.84
2023-04-05T11:37:56.303Z,102193.38
2023-04-05T11:40:30.912Z,102185.00
2023-04-05T11:43:06.000Z,102187.59
2023-04-05T11:45:41.831Z,102177.88
2023-04-05T11:48:16.725Z,102165.53
2023-04-05T11:50:52.327Z,102171.94
2023-04-05T11:53:25.366Z,102169.53
2023-04-05T11:56:08.328Z,102170.38
2023-04-05T11:58:41.158Z,102164.81
2023-04-05T12:01:15.575Z,102160.34
2023-04-05T12:03:55.117Z,102164.84
2023-04-05T12:06:28.020Z,102158.88
2023-04-05T12:09:00.928Z,102158.19
2023-04-05T12:11:33.478Z,102143.28
2023-04-05T12:14:06.202Z,102143.94
2023-04-05T12:16:50.992Z,102143.34
2023-04-05T12:19:24.004Z,102150.91
2023-04-05T12:21:57.138Z,102157.69
2023-04-05T12:24:30.560Z,102149.72
2023-04-05T12:27:03.526Z,102146.84
2023-04-05T12:29:36.315Z,102144.78
2023-04-05T12:32:12.065Z,102140.84
2023-04-05T12:34:48.847Z,102139.25
2023-04-05T12:37:21.977Z,102137.59
2023-04-05T12:39:55.653Z,102132.81
2023-04-05T12:42:33.818Z,102133.53
2023-04-05T12:45:10.336Z,102127.13
2023-04-05T12:47:59.179Z,102120.78
2023-04-05T12:50:32.649Z,102122.31
2023-04-05T12:53:07.731Z,102121.22
2023-04-05T12:55:48.834Z,102118.41
2023-04-05T12:58:22.977Z,102115.56
2023-04-05T13:00:55.862Z,102107.13
2023-04-05T13:03:29.961Z,102113.44
2023-04-05T13:06:02.854Z,102107.06
2023-04-05T13:08:35.796Z,102116.53
2023-04-05T13:11:08.560Z,102107.38
2023-04-05T13:13:42.562Z,102109.38
2023-04-05T13:16:15.580Z,102102.91
2023-04-05T13:18:49.912Z,102099.63
2023-04-05T13:21:22.746Z,102098.13
2023-04-05T13:23:55.688Z,102093.44
2023-04-05T13:26:28.276Z,102087.03
2023-04-05T13:29:01.876Z,102076.81
2023-04-05T13:31:34.738Z,102087.91
2023-04-05T13:34:08.701Z,102083.03
2023-04-05T13:36:41.436Z,102086.47
2023-04-05T13:39:14.109Z,102073.25
2023-04-05T13:41:46.882Z,102071.25
2023-04-05T13:44:19.653Z,102066.38
2023-04-05T13:46:52.393Z,102067.44
2023-04-05T13:49:26.539Z,102067.75
2023-04-05T13:51:59.250Z,102067.78
2023-04-05T13:57:04.614Z,102050.78
2023-04-05T13:59:37.596Z,102056.59
2023-04-05T14:02:11.647Z,102051.59
2023-04-05T14:04:45.745Z,102051.47
2023-04-05T14:07:18.523Z,102054.19
2023-04-05T14:09:51.503Z,102048.22
2023-04-05T14:12:24.622Z,102049.09
2023-04-05T14:14:57.334Z,102049.50
2023-04-05T14:17:30.429Z,102040.88
2023-04-05T14:20:04.893Z,102035.44
2023-04-05T14:22:37.610Z,102036.38
2023-04-05T14:25:11.065Z,102035.69
2023-04-05T14:27:43.827Z,102035.06
2023-04-05T14:30:16.773Z,102033.56
2023-04-05T14:32:49.716Z,102028.78
2023-04-05T14:35:23.734Z,102024.16
2023-04-05T14:37:56.473Z,102025.03
2023-04-05T14:40:29.234Z,102027.00
2023-04-05T14:43:02.078Z,102024.31
2023-04-05T14:45:34.706Z,102018.81
2023-04-05T14:48:07.597Z,102010.09
2023-04-05T14:50:42.315Z,102010.22
2023-04-05T14:53:15.275Z,102010.44
2023-04-05T14:55:47.953Z,102001.78
2023-04-05T14:58:27.938Z,102005.75
2023-04-05T15:01:00.973Z,102003.94
2023-04-05T15:03:34.035Z,101991.59
2023-04-05T15:06:08.471Z,101997.50
2023-04-05T15:08:41.408Z,101994.50
2023-04-05T15:11:14.791Z,101989.44
2023-04-05T15:13:47.515Z,101992.69
2023-04-05T15:16:20.333Z,101982.75
2023-04-05T15:18:54.753Z,101980.09
2023-04-05T15:21:30.032Z,101982.97
2023-04-05T15:24:03.150Z,101981.84
2023-04-05T15:26:35.951Z,101979.16
2023-04-05T15:29:08.646Z,101985.59
2023-04-05T15:31:41.967Z,101981.72
2023-04-05T15:34:15.493Z,101981.75
2023-04-05T15:36:51.479Z,101968.66
2023-04-05T15:39:25.179Z,101970.69
2023-04-05T15:41:58.316Z,101970.00
2023-04-05T15:44:31.806Z,101973.59
2023-04-05T15:47:04.568Z,101963.31
2023-04-05T15:49:37.393Z,101968.94
2023-04-05T15:52:12.012Z,101968.59
2023-04-05T15:54:45.314Z,101963.84
2023-04-05T15:57:18.045Z,101959.88
2023-04-05T15:59:50.761Z,101957.53
2023-04-05T16:02:23.548Z,101957.56
2023-04-05T16:04:56.198Z,101959.16
2023-04-05T16:07:30.458Z,101950.44
2023-04-05T16:10:04.365Z,101955.22
2023-04-05T16:12:37.530Z,101954.44
2023-04-05T16:15:11.116Z,101950.44
2023-04-05T16:17:43.966Z,101943.69
2023-04-05T16:20:17.448Z,101947.25
2023-04-05T16:22:52.676Z,101940.09
2023-04-05T16:25:25.480Z,101935.34
2023-04-05T16:27:58.508Z,101928.22
2023-04-05T16:30:31.766Z,101926.56
2023-04-05T16:33:04.666Z,101930.94
2023-04-05T16:35:37.360Z,101928.91
2023-04-05T16:38:11.672Z,101927.31
2023-04-05T16:40:45.018Z,101929.69
2023-04-05T16:43:18.175Z,101930.38
2023-04-05T16:45:54.341Z,101928.00
2023-04-05T16:48:27.782Z,101926.75
2023-04-05T16:51:00.828Z,101921.63
2023-04-05T16:53:35.107Z,101925.53
2023-04-05T16:56:08.239Z,101920.75
2023-04-05T16:58:41.001Z,101928.63
2023-04-05T17:01:13.847Z,101916.31
2023-04-05T17:03:47.131Z,101909.56
2023-04-05T17:06:21.037Z,101913.47
2023-04-05T17:08:55.138Z,101913.81
2023-04-05T17:11:28.360Z,101914.97
2023-04-05T17:14:01.307Z,101917.69
2023-04-05T17:16:33.916Z,101918.03
2023-04-05T17:19:06.676Z,101917.22
2023-04-05T17:21:39.413Z,101913.13
2023-04-05T17:24:13.572Z,101910.38
2023-04-05T17:26:46.740Z,101903.19
2023-04-05T17:29:19.718Z,101907.06
2023-04-05T17:31:52.462Z,101910.56
2023-04-05T17:34:25.418Z,101908.06
2023-04-05T17:36:57.976Z,101905.22
2023-04-05T17:39:32.240Z,101908.72
2023-04-05T17:42:05.029Z,101907.47
2023-04-05T17:44:37.838Z,101901.84
2023-04-05T17:47:10.851Z,101899.78
2023-04-05T17:49:43.829Z,101908.41
2023-04-05T17:52:16.731Z,101904.38
2023-04-05T17:54:52.430Z,101905.13
2023-04-05T17:57:25.420Z,101913.72
2023-04-05T17:59:59.214Z,101910.47
2023-04-05T18:02:32.657Z,101912.69
2023-04-05T18:05:05.750Z,101909.84
2023-04-05T18:07:38.552Z,101908.50
2023-04-05T18:10:13.436Z,101913.59
2023-04-05T18:12:46.199Z,101910.00
2023-04-05T18:15:19.812Z,101905.97
2023-04-05T18:17:52.758Z,101904.22
2023-04-05T18:20:25.516Z,101904.28
2023-04-05T18:22:59.996Z,101903.41
2023-04-05T18:25:34.107Z,101909.59
2023-04-05T18:28:19.426Z,101906.41
2023-04-05T18:30:55.119Z,101906.72
2023-04-05T18:33:27.680Z,101913.00
2023-04-05T18:36:00.465Z,101906.88
2023-04-05T18:38:33.373Z,101906.66
2023-04-05T18:41:09.330Z,101911.03
2023-04-05T18:43:42.212Z,101915.94
2023-04-05T18:46:18.481Z,101914.69
2023-04-05T18:48:54.465Z,101917.94
2023-04-05T18:51:27.568Z,101911.59
2023-04-05T18:54:00.564Z,101913.06
2023-04-05T18:56:34.864Z,101921.25
2023-04-05T18:59:07.940Z,101918.31
2023-04-05T19:01:43.061Z,101919.00
2023-04-05T19:04:16.511Z,101920.50
2023-04-05T19:06:49.453Z,101916.06
2023-04-05T19:09:22.591Z,101920.00
2023-04-05T19:11:57.696Z,101921.06
2023-04-05T19:14:30.487Z,101917.81
2023-04-05T19:17:03.414Z,101913.47
2023-04-05T19:19:36.351Z,101920.09
2023-04-05T19:22:11.197Z,101910.56
2023-04-05T19:24:44.025Z,101908.47
2023-04-05T19:27:18.186Z,101911.94
2023-04-05T19:29:51.044Z,101910.28
2023-04-05T19:32:24.230Z,101907.88
2023-04-05T19:34:59.250Z,101902.19
2023-04-05T19:37:32.170Z,101904.44
2023-04-05T19:40:06.178Z,101910.31
2023-04-05T19:42:47.353Z,101906.59
2023-04-05T19:45:25.810Z,101906.25
2023-04-05T19:48:02.698Z,101903.84
2023-04-05T19:50:49.936Z,101901.75
2023-04-05T19:53:44.124Z,101898.19
2023-04-05T19:56:20.306Z,101894.91
2023-04-05T19:58:59.382Z,101887.31
2023-04-05T20:01:36.558Z,101886.34
2023-04-05T20:04:13.126Z,101883.97
2023-04-05T20:06:53.070Z,101885.31
2023-04-05T20:09:28.849Z,101882.22
2023-04-05T20:12:03.604Z,101870.69
2023-04-05T20:14:42.404Z,101875.75
2023-04-05T20:17:19.025Z,101870.97
2023-04-05T20:19:57.652Z,101860.66
2023-04-05T20:22:36.146Z,101866.97
2023-04-05T20:25:37.590Z,101855.97
2023-04-05T20:28:34.939Z,101855.00
2023-04-05T20:31:11.245Z,101850.22
2023-04-05T20:33:49.445Z,101843.03
2023-04-05T20:36:24.605Z,101848.75
2023-04-05T20:38:57.964Z,101841.38
2023-04-05T20:41:33.995Z,101848.47
2023-04-05T20:44:06.990Z,101842.97
2023-04-05T20:46:41.110Z,101840.06
2023-04-05T20:49:13.914Z,101832.34
2023-04-05T20:51:47.208Z,101836.34
2023-04-05T20:54:21.124Z,101834.75
2023-04-05T20:56:54.031Z,101828.28
2023-04-05T20:59:27.363Z,101827.81
2023-04-05T21:02:01.863Z,101830.69
2023-04-05T21:04:34.707Z,101820.38
2023-04-05T21:07:07.611Z,101819.91
2023-04-05T21:09:40.592Z,101816.81
2023-04-05T21:12:13.247Z,101810.53
2023-04-05T21:14:46.330Z,101809.28
2023-04-05T21:17:20.520Z,101805.75
2023-04-05T21:19:54.134Z,101811.25
2023-04-05T21:22:27.039Z,101801.66
2023-04-05T21:24:59.864Z,101804.78
2023-04-05T21:27:32.595Z,101800.78
2023-04-05T21:30:06.353Z,101800.78
2023-04-05T21:32:40.754Z,101799.91
2023-04-05T21:35:13.827Z,101797.59
2023-04-05T21:37:46.631Z,101806.63
2023-04-05T21:40:19.679Z,101800.22
2023-04-05T21:42:52.650Z,101797.94
2023-04-05T21:45:25.654Z,101794.72
2023-04-05T21:47:59.888Z,101795.44
2023-04-05T21:50:32.675Z,101793.31
2023-04-05T21:53:07.326Z,101793.59
2023-04-05T21:55:40.219Z,101788.38
2023-04-05T21:58:12.986Z,101784.28
2023-04-05T22:00:45.763Z,101787.22
2023-04-05T22:03:19.912Z,101786.91
2023-04-05T22:05:52.706Z,101788.00
2023-04-05T22:08:26.785Z,101787.56
2023-04-05T22:10:59.622Z,101791.53
2023-04-05T22:13:32.284Z,101786.28
2023-04-05T22:16:05.278Z,101778.06
2023-04-05T22:18:39.941Z,101775.59
2023-04-05T22:21:12.693Z,101779.13
2023-04-05T22:23:45.721Z,101775.03
2023-04-05T22:26:18.275Z,101774.31
2023-04-05T22:28:51.072Z,101771.16
2023-04-05T22:31:23.817Z,101767.50
2023-04-05T22:33:58.035Z,101764.75
2023-04-05T22:36:31.499Z,101764.66
2023-04-05T22:39:04.432Z,101760.56
2023-04-05T22:41:37.022Z,101759.06
2023-04-05T22:44:10.492Z,101760.56
2023-04-05T22:46:43.244Z,101758.88
2023-04-05T22:49:17.704Z,101758.00
2023-04-05T22:51:50.344Z,101758.00
2023-04-05T22:54:23.253Z,101749.31
2023-04-05T22:56:55.954Z,101760.97
2023-04-05T22:59:28.844Z,101751.59
2023-04-05T23:02:01.573Z,101751.16
2023-04-05T23:04:35.763Z,101747.06
2023-04-05T23:07:08.685Z,101745.03
2023-04-05T23:09:41.450Z,101748.94
2023-04-05T23:12:14.261Z,101742.53
2023-04-05T23:14:47.220Z,101739.78
2023-04-05T23:17:20.057Z,101742.34
2023-04-05T23:19:54.717Z,101735.44
2023-04-05T23:22:27.533Z,101730.31
2023-04-05T23:25:02.650Z,101720.81
2023-04-05T23:27:35.328Z,101730.69
2023-04-05T23:30:09.301Z,101721.78
2023-04-05T23:32:42.087Z,101718.09
2023-04-05T23:35:16.574Z,101723.28
2023-04-05T23:37:49.457Z,101712.56
2023-04-05T23:40:22.209Z,101708.34
2023-04-05T23:42:57.034Z,101707.19
2023-04-05T23:45:29.904Z,101704.69
2023-04-05T23:48:02.571Z,101706.72
2023-04-05T23:50:36.712Z,101702.50
2023-04-05T23:53:09.430Z,101698.88
2023-04-05T23:55:42.175Z,101701.63
2023-04-05T23:58:15.061Z,101694.50
